Time;durP1;ratioP1;P1;durP2;ratioP2;P2;SDS_P1;SDS_P2;PMS_P1;PMS_P2;Temp;Humidity;BMP_temperature;BMP_pressure;BME280_temperature;BME280_humidity;BME280_pressure;Samples;Min_cycle;Max_cycle;Signal;HPM_P1;HPM_P2
2023/12/31 00:02:27;;;;;;;0.00;0.00;;;28.10;38.80;;;;;;5132144;27;20212;-46
2023/12/31 00:04:58;;;;;;;0.00;0.00;;;28.10;38.70;;;;;;5131831;27;20657;-44
2023/12/31 00:07:29;;;;;;;0.00;0.00;;;28.10;38.70;;;;;;5131566;27;20216;-50
2023/12/31 00:10:01;;;;;;;0.00;0.00;;;28.10;38.80;;;;;;5131714;27;20204;-48
2023/12/31 00:12:32;;;;;;;0.00;0.00;;;28.10;38.60;;;;;;5131199;27;20774;-53
2023/12/31 00:15:03;;;;;;;0.00;0.00;;;28.10;38.50;;;;;;5120726;27;20205;-53
2023/12/31 00:17:34;;;;;;;0.00;0.00;;;28.10;38.40;;;;;;5131064;27;20277;-48
2023/12/31 00:20:04;;;;;;;0.00;0.00;;;28.20;38.30;;;;;;5131379;27;20200;-45
2023/12/31 00:22:36;;;;;;;0.00;0.00;;;28.20;38.40;;;;;;5114489;28;20201;-47
2023/12/31 00:25:09;;;;;;;0.00;0.00;;;28.20;38.30;;;;;;5114503;28;20198;-49
2023/12/31 00:27:41;;;;;;;0.00;0.00;;;28.20;38.30;;;;;;5114622;28;20229;-48
2023/12/31 00:30:13;;;;;;;0.00;0.00;;;28.30;38.30;;;;;;5113406;22;20234;-49
2023/12/31 00:32:44;;;;;;;0.00;0.00;;;28.30;38.10;;;;;;5094168;28;20235;-48
2023/12/31 00:35:15;;;;;;;0.00;0.00;;;28.30;38.10;;;;;;5094331;28;20194;-50
2023/12/31 00:37:46;;;;;;;0.00;0.00;;;28.30;38.10;;;;;;5103581;28;20225;-50
2023/12/31 00:40:19;;;;;;;0.00;0.00;;;28.40;38.20;;;;;;5114443;28;20288;-50
2023/12/31 00:42:49;;;;;;;0.00;0.00;;;28.40;38.20;;;;;;5095778;28;20673;-49
2023/12/31 00:45:20;;;;;;;0.00;0.00;;;28.40;38.20;;;;;;5093521;28;20209;-52
2023/12/31 00:47:51;;;;;;;0.00;0.00;;;28.40;38.30;;;;;;5093006;28;20590;-47
2023/12/31 00:50:22;;;;;;;0.00;0.00;;;28.50;38.40;;;;;;5093804;28;20194;-48
2023/12/31 00:52:53;;;;;;;0.00;0.00;;;28.50;38.30;;;;;;5093973;28;20280;-48
2023/12/31 00:55:26;;;;;;;0.00;0.00;;;28.50;38.30;;;;;;5093639;28;20562;-50
2023/12/31 00:57:56;;;;;;;0.00;0.00;;;28.50;38.30;;;;;;5092947;28;20214;-49
2023/12/31 01:00:27;;;;;;;0.00;0.00;;;28.50;38.30;;;;;;5093761;28;20199;-47
2023/12/31 01:02:58;;;;;;;0.00;0.00;;;28.50;38.30;;;;;;5093659;28;20194;-48
2023/12/31 01:05:28;;;;;;;0.00;0.00;;;28.50;38.30;;;;;;5093283;28;20220;-47
2023/12/31 01:07:59;;;;;;;0.00;0.00;;;28.60;38.30;;;;;;5104537;28;20197;-48
2023/12/31 01:10:32;;;;;;;0.00;0.00;;;28.60;38.20;;;;;;5101438;28;20201;-47
2023/12/31 01:13:02;;;;;;;0.00;0.00;;;28.60;38.00;;;;;;5091247;28;20194;-48
2023/12/31 01:15:33;;;;;;;0.00;0.00;;;28.60;37.80;;;;;;5090755;28;20239;-48
2023/12/31 01:18:04;;;;;;;0.00;0.00;;;28.60;37.70;;;;;;5093306;28;20201;-47
2023/12/31 01:20:35;;;;;;;0.00;0.00;;;28.70;37.80;;;;;;5093244;28;20205;-47
2023/12/31 01:23:05;;;;;;;0.00;0.00;;;28.70;37.60;;;;;;5092916;28;20202;-49
2023/12/31 01:25:39;;;;;;;0.00;0.00;;;28.70;37.60;;;;;;5092939;28;20299;-49
2023/12/31 01:28:10;;;;;;;0.00;0.00;;;28.80;37.50;;;;;;5092908;28;20191;-47
2023/12/31 01:30:41;;;;;;;0.00;0.00;;;28.80;37.60;;;;;;5092920;28;20214;-48
2023/12/31 01:33:11;;;;;;;0.00;0.00;;;28.80;37.60;;;;;;5092333;28;20204;-48
2023/12/31 01:35:42;;;;;;;0.00;0.00;;;28.80;37.60;;;;;;5092910;28;20190;-47
2023/12/31 01:38:13;;;;;;;0.00;0.00;;;28.90;37.50;;;;;;5106136;28;20202;-48
2023/12/31 01:40:54;;;;;;;0.00;0.00;;;28.90;37.60;;;;;;5112757;28;20245;-47
2023/12/31 01:43:26;;;;;;;0.00;0.00;;;28.90;37.70;;;;;;5113097;28;20197;-49
2023/12/31 01:45:57;;;;;;;0.00;0.00;;;28.90;37.70;;;;;;5112735;28;20236;-50
2023/12/31 01:48:28;;;;;;;0.00;0.00;;;28.90;37.70;;;;;;5112375;28;20231;-47
2023/12/31 01:50:59;;;;;;;0.00;0.00;;;29.00;37.80;;;;;;5112252;28;20198;-49
2023/12/31 01:53:30;;;;;;;0.00;0.00;;;29.00;37.90;;;;;;5113214;28;20193;-52
2023/12/31 01:56:03;;;;;;;0.00;0.00;;;29.00;37.90;;;;;;5112962;28;20217;-51
2023/12/31 01:58:34;;;;;;;0.00;0.00;;;29.00;37.80;;;;;;5112910;28;20200;-52
2023/12/31 02:01:05;;;;;;;0.00;0.00;;;29.00;37.80;;;;;;5111628;28;20216;-49
2023/12/31 02:03:38;;;;;;;0.00;0.00;;;29.00;37.70;;;;;;5112892;28;20200;-54
2023/12/31 02:06:09;;;;;;;0.00;0.00;;;29.00;37.60;;;;;;5112630;28;20213;-52
2023/12/31 02:08:40;;;;;;;0.00;0.00;;;29.00;37.40;;;;;;5112323;28;20650;-49
2023/12/31 02:11:13;;;;;;;0.00;0.00;;;29.10;37.40;;;;;;5112484;28;20214;-48
2023/12/31 02:13:44;;;;;;;0.00;0.00;;;29.10;37.30;;;;;;5112970;28;20642;-53
2023/12/31 02:16:17;;;;;;;0.00;0.00;;;29.10;37.10;;;;;;5112813;28;20219;-53
2023/12/31 02:18:48;;;;;;;0.00;0.00;;;29.10;37.10;;;;;;5112953;28;20202;-53
2023/12/31 02:21:19;;;;;;;0.00;0.00;;;29.20;37.10;;;;;;5112869;28;20653;-55
2023/12/31 02:23:50;;;;;;;0.00;0.00;;;29.20;37.00;;;;;;5112893;28;20198;-54
2023/12/31 02:26:22;;;;;;;0.00;0.00;;;29.20;37.00;;;;;;5113743;28;20220;-52
2023/12/31 02:28:53;;;;;;;0.00;0.00;;;29.20;36.80;;;;;;5112645;28;20197;-56
2023/12/31 02:31:24;;;;;;;0.00;0.00;;;29.30;36.90;;;;;;5112301;28;20213;-57
2023/12/31 02:33:54;;;;;;;0.00;0.00;;;29.30;37.00;;;;;;5108976;28;20193;-54
2023/12/31 02:36:25;;;;;;;0.00;0.00;;;29.30;37.00;;;;;;5091975;28;20297;-49
2023/12/31 02:38:56;;;;;;;0.00;0.00;;;29.30;37.00;;;;;;5110936;28;20200;-56
2023/12/31 02:41:28;;;;;;;0.00;0.00;;;29.40;37.20;;;;;;5111896;28;20675;-56
2023/12/31 02:43:59;;;;;;;0.00;0.00;;;29.30;37.20;;;;;;5112138;28;20197;-53
2023/12/31 02:46:30;;;;;;;0.00;0.00;;;29.30;37.20;;;;;;5112000;28;20220;-52
2023/12/31 02:49:00;;;;;;;0.00;0.00;;;29.40;37.10;;;;;;5112155;28;20193;-55
2023/12/31 02:51:31;;;;;;;0.00;0.00;;;29.40;37.10;;;;;;5112163;28;20225;-53
2023/12/31 02:54:02;;;;;;;0.00;0.00;;;29.40;37.20;;;;;;5112110;28;20201;-50
2023/12/31 02:56:40;;;;;;;0.00;0.00;;;29.40;37.30;;;;;;5111701;28;20210;-47
2023/12/31 02:59:11;;;;;;;0.00;0.00;;;29.40;37.10;;;;;;5111818;28;20211;-49
2023/12/31 03:01:42;;;;;;;0.00;0.00;;;29.40;37.00;;;;;;5111136;28;20194;-49
2023/12/31 03:04:12;;;;;;;0.00;0.00;;;29.40;36.90;;;;;;5111163;28;20216;-50
2023/12/31 03:06:43;;;;;;;0.00;0.00;;;29.50;36.70;;;;;;5111194;28;20255;-48
2023/12/31 03:09:14;;;;;;;0.00;0.00;;;29.60;36.80;;;;;;5111474;28;20648;-49
2023/12/31 03:11:47;;;;;;;0.00;0.00;;;29.50;36.80;;;;;;5113412;28;20688;-48
2023/12/31 03:14:18;;;;;;;0.00;0.00;;;29.60;36.90;;;;;;5115635;28;20653;-48
2023/12/31 03:16:49;;;;;;;0.00;0.00;;;29.60;37.50;;;;;;5105098;28;20701;-47
2023/12/31 03:19:21;;;;;;;0.00;0.00;;;29.70;37.00;;;;;;5092464;28;20190;-48
2023/12/31 03:21:52;;;;;;;0.00;0.00;;;29.70;36.90;;;;;;5095628;28;20201;-48
2023/12/31 03:24:23;;;;;;;0.00;0.00;;;29.70;36.90;;;;;;5095437;28;20190;-48
2023/12/31 03:26:56;;;;;;;0.00;0.00;;;29.80;36.90;;;;;;5094819;28;20238;-49
2023/12/31 03:29:26;;;;;;;0.00;0.00;;;29.80;37.00;;;;;;5094528;28;20198;-50
2023/12/31 03:31:57;;;;;;;0.00;0.00;;;29.80;36.90;;;;;;5095290;28;20239;-50
2023/12/31 03:34:27;;;;;;;0.00;0.00;;;29.80;36.90;;;;;;5089928;28;20190;-50
2023/12/31 03:36:58;;;;;;;0.00;0.00;;;29.90;37.00;;;;;;5086627;28;20595;-47
2023/12/31 03:39:29;;;;;;;0.00;0.00;;;29.80;37.00;;;;;;5101839;28;20216;-51
2023/12/31 03:42:01;;;;;;;0.00;0.00;;;29.90;37.10;;;;;;5085956;28;20201;-52
2023/12/31 03:44:32;;;;;;;0.00;0.00;;;29.90;37.00;;;;;;5091376;28;20198;-53
2023/12/31 03:47:03;;;;;;;0.00;0.00;;;29.90;37.00;;;;;;5091034;28;20229;-52
2023/12/31 03:49:33;;;;;;;0.00;0.00;;;29.90;36.90;;;;;;5091405;28;20201;-49
2023/12/31 03:52:04;;;;;;;0.00;0.00;;;29.90;37.00;;;;;;5091139;28;20304;-50
2023/12/31 03:54:35;;;;;;;0.00;0.00;;;29.90;36.90;;;;;;5091231;28;20196;-52
2023/12/31 03:57:08;;;;;;;0.00;0.00;;;29.90;36.80;;;;;;5090715;28;20218;-50
2023/12/31 03:59:38;;;;;;;0.00;0.00;;;30.00;36.80;;;;;;5090940;28;20662;-49
2023/12/31 04:02:09;;;;;;;0.00;0.00;;;30.00;36.60;;;;;;5077367;28;20195;-49
2023/12/31 04:04:41;;;;;;;0.00;0.00;;;30.00;36.40;;;;;;5079705;28;20579;-52
2023/12/31 04:07:12;;;;;;;0.00;0.00;;;30.00;36.40;;;;;;5095107;28;20571;-52
2023/12/31 04:09:43;;;;;;;0.00;0.00;;;30.00;36.40;;;;;;5100849;28;20190;-48
2023/12/31 04:12:15;;;;;;;0.00;0.00;;;30.00;36.30;;;;;;5091044;28;20578;-51
2023/12/31 04:14:46;;;;;;;0.00;0.00;;;30.10;36.20;;;;;;5089948;28;20194;-51
2023/12/31 04:17:18;;;;;;;0.00;0.00;;;30.10;36.10;;;;;;5090857;28;20229;-53
2023/12/31 04:19:49;;;;;;;0.00;0.00;;;30.10;36.10;;;;;;5091139;28;20685;-51
2023/12/31 04:22:23;;;;;;;0.00;0.00;;;30.10;36.10;;;;;;5089795;28;20217;-47
2023/12/31 04:24:54;;;;;;;0.00;0.00;;;30.10;36.10;;;;;;5090723;28;20707;-48
2023/12/31 04:27:26;;;;;;;0.00;0.00;;;30.10;36.10;;;;;;5089066;28;20221;-47
2023/12/31 04:29:57;;;;;;;0.00;0.00;;;30.20;36.20;;;;;;5090672;28;20198;-49
2023/12/31 04:32:28;;;;;;;0.00;0.00;;;30.20;36.30;;;;;;5090609;28;20697;-50
2023/12/31 04:34:58;;;;;;;0.00;0.00;;;30.20;36.10;;;;;;5090246;28;20198;-50
2023/12/31 04:37:29;;;;;;;0.00;0.00;;;30.20;36.20;;;;;;5097017;28;20255;-48
2023/12/31 04:40:00;;;;;;;0.00;0.00;;;30.30;36.30;;;;;;5105308;22;20241;-48
2023/12/31 04:42:34;;;;;;;0.00;0.00;;;30.30;36.30;;;;;;5089429;28;20216;-48
2023/12/31 04:45:07;;;;;;;0.00;0.00;;;30.30;36.20;;;;;;5089875;28;20213;-46
2023/12/31 04:47:38;;;;;;;0.00;0.00;;;30.30;36.30;;;;;;5090702;28;20723;-47
2023/12/31 04:50:10;;;;;;;0.00;0.00;;;30.30;36.20;;;;;;5089450;28;20190;-42
2023/12/31 04:52:41;;;;;;;0.00;0.00;;;30.30;36.10;;;;;;5089953;28;20683;-47
2023/12/31 04:55:12;;;;;;;0.00;0.00;;;30.30;36.10;;;;;;5074994;28;20199;-42
2023/12/31 04:57:44;;;;;;;0.00;0.00;;;30.30;36.10;;;;;;5068875;28;20233;-44
2023/12/31 05:00:16;;;;;;;0.00;0.00;;;30.30;36.00;;;;;;5070050;28;20198;-46
2023/12/31 05:02:47;;;;;;;0.00;0.00;;;30.40;36.10;;;;;;5069673;28;20198;-44
2023/12/31 05:05:18;;;;;;;0.00;0.00;;;30.40;36.70;;;;;;5080535;28;20291;-41
2023/12/31 05:07:48;;;;;;;0.00;0.00;;;30.40;35.80;;;;;;5079452;28;20222;-43
2023/12/31 05:10:20;;;;;;;0.00;0.00;;;30.40;35.80;;;;;;5060613;28;20190;-45
2023/12/31 05:12:52;;;;;;;0.00;0.00;;;30.40;35.80;;;;;;5067315;28;20292;-41
2023/12/31 05:15:23;;;;;;;0.00;0.00;;;30.40;35.70;;;;;;5080695;28;20220;-44
2023/12/31 05:17:54;;;;;;;0.00;0.00;;;30.40;35.60;;;;;;5089262;28;20218;-41
2023/12/31 05:20:24;;;;;;;0.00;0.00;;;30.40;35.60;;;;;;5083684;28;20198;-47
2023/12/31 05:22:55;;;;;;;0.00;0.00;;;30.40;35.60;;;;;;5072041;28;20227;-43
2023/12/31 05:25:26;;;;;;;0.00;0.00;;;30.40;35.60;;;;;;5068891;28;20195;-48
2023/12/31 05:27:58;;;;;;;0.00;0.00;;;30.40;35.50;;;;;;5068600;28;20218;-43
2023/12/31 05:30:29;;;;;;;0.00;0.00;;;30.40;35.60;;;;;;5069297;28;20197;-47
2023/12/31 05:33:00;;;;;;;0.00;0.00;;;30.40;35.50;;;;;;5069200;28;20705;-48
2023/12/31 05:35:31;;;;;;;0.00;0.00;;;30.40;35.40;;;;;;5068305;28;20209;-42
2023/12/31 05:38:01;;;;;;;0.00;0.00;;;30.40;35.50;;;;;;5069386;28;20202;-46
2023/12/31 05:40:32;;;;;;;0.00;0.00;;;30.40;35.50;;;;;;5068412;28;20214;-45
2023/12/31 05:43:05;;;;;;;0.00;0.00;;;30.40;35.60;;;;;;5067750;28;20255;-48
2023/12/31 05:45:35;;;;;;;0.00;0.00;;;30.40;35.20;;;;;;5068292;28;20199;-45
2023/12/31 05:48:07;;;;;;;0.00;0.00;;;30.40;35.10;;;;;;5068277;28;20489;-44
2023/12/31 05:50:38;;;;;;;0.00;0.00;;;30.40;35.10;;;;;;5068408;28;20191;-42
2023/12/31 05:53:08;;;;;;;0.00;0.00;;;30.40;35.10;;;;;;5068538;28;20234;-45
2023/12/31 05:55:39;;;;;;;0.00;0.00;;;30.40;35.20;;;;;;5069083;28;20217;-45
2023/12/31 05:58:12;;;;;;;0.00;0.00;;;30.40;35.30;;;;;;5067414;28;20199;-46
2023/12/31 06:00:42;;;;;;;0.00;0.00;;;30.40;35.30;;;;;;5068152;28;20506;-47
2023/12/31 06:03:13;;;;;;;0.00;0.00;;;30.40;35.10;;;;;;5068522;28;20563;-44
2023/12/31 06:05:44;;;;;;;0.00;0.00;;;30.40;35.70;;;;;;5068801;28;20195;-45
2023/12/31 06:08:14;;;;;;;0.00;0.00;;;30.40;35.10;;;;;;5067969;28;20203;-45
2023/12/31 06:10:45;;;;;;;0.00;0.00;;;30.40;35.00;;;;;;5068609;28;20199;-44
2023/12/31 06:13:18;;;;;;;0.00;0.00;;;30.30;35.10;;;;;;5067541;28;20231;-43
2023/12/31 06:15:48;;;;;;;0.00;0.00;;;30.30;35.10;;;;;;5068015;28;20191;-43
2023/12/31 06:18:19;;;;;;;0.00;0.00;;;30.30;35.10;;;;;;5068499;28;20202;-45
2023/12/31 06:20:50;;;;;;;0.00;0.00;;;30.30;35.10;;;;;;5067786;28;20685;-45
2023/12/31 06:23:21;;;;;;;0.00;0.00;;;30.30;35.30;;;;;;5067521;28;21113;-47
2023/12/31 06:25:51;;;;;;;0.00;0.00;;;30.30;35.30;;;;;;5073558;28;20244;-43
2023/12/31 06:28:24;;;;;;;0.00;0.00;;;30.30;35.40;;;;;;5091530;28;20677;-44
2023/12/31 06:30:55;;;;;;;0.00;0.00;;;30.30;36.10;;;;;;5092220;28;20198;-49
2023/12/31 06:33:26;;;;;;;0.00;0.00;;;30.20;35.50;;;;;;5076777;28;20573;-46
2023/12/31 06:35:57;;;;;;;0.00;0.00;;;30.20;35.50;;;;;;5071387;28;20218;-43
2023/12/31 06:38:27;;;;;;;0.00;0.00;;;30.20;35.50;;;;;;5071510;28;20207;-43
2023/12/31 06:40:58;;;;;;;0.00;0.00;;;30.20;35.60;;;;;;5070396;28;20198;-41
2023/12/31 06:43:31;;;;;;;0.00;0.00;;;30.20;35.60;;;;;;5070367;28;20892;-42
2023/12/31 06:46:02;;;;;;;0.00;0.00;;;30.10;35.50;;;;;;5070524;28;20218;-45
2023/12/31 06:48:33;;;;;;;0.00;0.00;;;30.10;35.60;;;;;;5071271;28;20207;-43
2023/12/31 06:51:03;;;;;;;0.00;0.00;;;30.10;35.60;;;;;;5070944;28;20638;-45
2023/12/31 06:53:35;;;;;;;0.00;0.00;;;30.10;35.70;;;;;;5070789;28;20226;-50
2023/12/31 06:56:07;;;;;;;0.00;0.00;;;30.10;35.70;;;;;;5070271;28;20237;-49
2023/12/31 06:58:40;;;;;;;0.00;0.00;;;30.00;35.70;;;;;;5070813;28;20202;-42
2023/12/31 07:01:11;;;;;;;0.00;0.00;;;30.00;35.80;;;;;;5071050;28;20218;-42
2023/12/31 07:03:42;;;;;;;0.00;0.00;;;30.00;35.80;;;;;;5070970;28;20225;-42
2023/12/31 07:06:13;;;;;;;0.00;0.00;;;30.00;35.80;;;;;;5070629;28;20221;-47
2023/12/31 07:08:43;;;;;;;0.00;0.00;;;29.90;35.80;;;;;;5071186;28;20195;-46
2023/12/31 07:11:16;;;;;;;0.00;0.00;;;29.90;35.90;;;;;;5070262;28;20182;-44
2023/12/31 07:13:49;;;;;;;0.00;0.00;;;29.90;36.00;;;;;;5050973;28;20699;-49
2023/12/31 07:16:19;;;;;;;0.00;0.00;;;29.80;36.00;;;;;;5066637;28;20211;-44
2023/12/31 07:18:50;;;;;;;0.00;0.00;;;29.80;36.00;;;;;;5071096;28;20198;-51
2023/12/31 07:21:27;;;;;;;0.00;0.00;;;29.70;36.00;;;;;;5070921;28;20206;-42
2023/12/31 07:23:58;;;;;;;0.00;0.00;;;29.70;36.10;;;;;;5071160;28;20201;-44
2023/12/31 07:26:29;;;;;;;0.00;0.00;;;29.70;36.10;;;;;;5069511;28;20215;-47
2023/12/31 07:29:02;;;;;;;0.00;0.00;;;29.70;36.10;;;;;;5070443;28;20575;-47
2023/12/31 07:31:35;;;;;;;0.00;0.00;;;29.70;36.20;;;;;;5070013;28;20210;-46
2023/12/31 07:34:05;;;;;;;0.00;0.00;;;29.60;36.20;;;;;;5071226;28;20309;-42
2023/12/31 07:36:36;;;;;;;0.00;0.00;;;29.60;36.20;;;;;;5070599;28;20229;-45
2023/12/31 07:39:07;;;;;;;0.00;0.00;;;29.60;36.20;;;;;;5074307;22;20230;-47
2023/12/31 07:41:37;;;;;;;0.00;0.00;;;29.50;36.20;;;;;;5050095;28;20199;-47
2023/12/31 07:44:10;;;;;;;0.00;0.00;;;29.50;36.20;;;;;;5050598;28;20199;-48
2023/12/31 07:46:40;;;;;;;0.00;0.00;;;29.40;36.30;;;;;;5050978;28;20215;-48
2023/12/31 07:49:11;;;;;;;0.00;0.00;;;29.40;36.30;;;;;;5050808;28;20200;-47
2023/12/31 07:51:42;;;;;;;0.00;0.00;;;29.40;36.30;;;;;;5050512;28;20207;-48
2023/12/31 07:54:12;;;;;;;0.00;0.00;;;29.40;36.40;;;;;;5050463;28;20238;-47
2023/12/31 07:56:43;;;;;;;0.00;0.00;;;29.30;36.40;;;;;;5049823;28;20216;-50
2023/12/31 07:59:16;;;;;;;0.00;0.00;;;29.30;36.40;;;;;;5053135;28;20227;-49
2023/12/31 08:01:46;;;;;;;0.00;0.00;;;29.30;36.40;;;;;;5054498;28;20245;-48
2023/12/31 08:04:17;;;;;;;0.00;0.00;;;29.20;36.40;;;;;;5054527;28;20195;-48
2023/12/31 08:06:48;;;;;;;0.00;0.00;;;29.20;36.50;;;;;;5054192;28;20216;-47
2023/12/31 08:09:19;;;;;;;0.00;0.00;;;29.20;36.50;;;;;;5054141;28;20199;-47
2023/12/31 08:11:50;;;;;;;0.00;0.00;;;29.10;36.50;;;;;;5047094;28;20286;-47
2023/12/31 08:14:23;;;;;;;0.00;0.00;;;29.10;36.50;;;;;;5050059;28;20215;-48
2023/12/31 08:16:53;;;;;;;0.00;0.00;;;29.00;36.50;;;;;;5045962;28;20227;-47
2023/12/31 08:19:24;;;;;;;0.00;0.00;;;29.00;36.50;;;;;;5050319;28;20552;-51
2023/12/31 08:21:55;;;;;;;0.00;0.00;;;28.90;36.50;;;;;;5048146;28;20601;-47
2023/12/31 08:24:25;;;;;;;0.00;0.00;;;28.90;36.60;;;;;;5050525;28;20199;-48
2023/12/31 08:26:56;;;;;;;0.00;0.00;;;28.80;36.60;;;;;;5030240;28;20220;-49
2023/12/31 08:29:28;;;;;;;0.00;0.00;;;28.80;36.60;;;;;;5051629;28;20199;-49
2023/12/31 08:31:59;;;;;;;0.00;0.00;;;28.70;36.60;;;;;;5050181;28;20199;-47
2023/12/31 08:34:30;;;;;;;0.00;0.00;;;28.70;36.70;;;;;;5050430;28;20703;-48
2023/12/31 08:37:00;;;;;;;0.00;0.00;;;28.70;36.80;;;;;;5039290;28;20220;-50
2023/12/31 08:39:32;;;;;;;0.00;0.00;;;28.60;36.60;;;;;;5108123;22;20239;-45
2023/12/31 08:42:06;;;;;;;0.00;0.00;;;28.60;36.80;;;;;;5127628;27;20279;-43
2023/12/31 08:44:39;;;;;;;0.00;0.00;;;28.50;36.70;;;;;;5131214;27;20741;-45
2023/12/31 08:47:10;;;;;;;0.00;0.00;;;28.50;36.80;;;;;;5130482;27;20323;-48
2023/12/31 08:49:40;;;;;;;0.00;0.00;;;28.50;36.90;;;;;;5130420;27;20299;-43
2023/12/31 08:52:11;;;;;;;0.00;0.00;;;28.40;36.80;;;;;;5114715;27;20280;-48
2023/12/31 08:54:42;;;;;;;0.00;0.00;;;28.40;36.90;;;;;;5110548;27;20308;-44
2023/12/31 08:57:13;;;;;;;0.00;0.00;;;28.40;36.90;;;;;;5129901;27;20255;-49
2023/12/31 08:59:45;;;;;;;0.00;0.00;;;28.30;36.90;;;;;;5130588;27;20204;-46
2023/12/31 09:02:16;;;;;;;0.00;0.00;;;28.30;36.90;;;;;;5130905;27;20231;-46
2023/12/31 09:04:47;;;;;;;0.00;0.00;;;28.20;36.90;;;;;;5118962;27;20189;-42
2023/12/31 09:07:17;;;;;;;0.00;0.00;;;28.20;36.90;;;;;;5130631;27;20319;-45
2023/12/31 09:09:48;;;;;;;0.00;0.00;;;28.20;37.00;;;;;;5127387;27;20275;-42
2023/12/31 09:12:19;;;;;;;0.00;0.00;;;28.10;36.90;;;;;;5129976;27;20293;-41
2023/12/31 09:14:52;;;;;;;0.00;0.00;;;28.10;37.00;;;;;;5130099;27;20230;-42
2023/12/31 09:17:22;;;;;;;0.00;0.00;;;28.10;37.10;;;;;;5121549;27;20217;-42
2023/12/31 09:19:54;;;;;;;0.00;0.00;;;28.00;37.00;;;;;;5110378;27;20280;-42
2023/12/31 09:22:26;;;;;;;0.00;0.00;;;28.00;37.10;;;;;;5130848;27;20687;-48
2023/12/31 09:24:56;;;;;;;0.00;0.00;;;27.90;37.10;;;;;;5130054;27;20257;-45
2023/12/31 09:27:27;;;;;;;0.00;0.00;;;27.90;37.10;;;;;;5129508;27;20623;-44
2023/12/31 09:30:00;;;;;;;0.00;0.00;;;27.90;37.20;;;;;;5119386;27;20208;-46
2023/12/31 09:32:30;;;;;;;0.00;0.00;;;27.80;37.20;;;;;;5129668;27;20197;-41
2023/12/31 09:35:01;;;;;;;0.00;0.00;;;27.80;37.20;;;;;;5129764;27;20315;-48
2023/12/31 09:37:32;;;;;;;0.00;0.00;;;27.70;37.20;;;;;;5130433;27;20716;-47
2023/12/31 09:40:03;;;;;;;0.00;0.00;;;27.70;37.30;;;;;;5121536;27;20304;-41
2023/12/31 09:42:49;;;;;;;0.00;0.00;;;27.70;37.30;;;;;;5123079;27;20194;-40
2023/12/31 09:45:23;;;;;;;0.00;0.00;;;27.60;37.30;;;;;;5111632;27;20743;-46
2023/12/31 09:47:55;;;;;;;0.00;0.00;;;27.60;37.40;;;;;;5130502;27;20266;-41
2023/12/31 09:50:26;;;;;;;0.00;0.00;;;27.60;37.40;;;;;;5129826;27;20552;-44
2023/12/31 09:52:59;;;;;;;0.00;0.00;;;27.50;37.40;;;;;;5129747;27;20296;-47
2023/12/31 09:55:31;;;;;;;0.00;0.00;;;27.50;37.40;;;;;;5129576;27;20225;-46
2023/12/31 09:58:02;;;;;;;0.00;0.00;;;27.50;37.40;;;;;;5108473;28;20189;-42
2023/12/31 10:00:35;;;;;;;0.00;0.00;;;27.40;37.40;;;;;;5113457;27;20284;-43
2023/12/31 10:03:07;;;;;;;0.00;0.00;;;27.40;37.50;;;;;;5129157;27;20196;-47
2023/12/31 10:05:40;;;;;;;0.00;0.00;;;27.40;37.50;;;;;;5122817;27;20283;-45
2023/12/31 10:08:11;;;;;;;0.00;0.00;;;27.40;37.50;;;;;;5129072;27;20204;-40
2023/12/31 10:10:42;;;;;;;0.00;0.00;;;27.30;37.50;;;;;;5121668;27;20271;-41
2023/12/31 10:13:17;;;;;;;0.00;0.00;;;27.30;37.60;;;;;;5128728;27;20205;-43
2023/12/31 10:15:50;;;;;;;0.00;0.00;;;27.30;37.60;;;;;;5129431;27;20288;-45
2023/12/31 10:18:21;;;;;;;0.00;0.00;;;27.20;37.60;;;;;;5129079;27;20288;-44
2023/12/31 10:20:52;;;;;;;0.00;0.00;;;27.20;37.60;;;;;;5123942;27;20189;-46
2023/12/31 10:23:22;;;;;;;0.00;0.00;;;27.20;37.70;;;;;;5107947;28;20276;-42
2023/12/31 10:25:53;;;;;;;0.00;0.00;;;27.10;37.70;;;;;;5113496;27;20727;-51
2023/12/31 10:28:25;;;;;;;0.00;0.00;;;27.10;37.70;;;;;;5128788;27;20275;-50
2023/12/31 10:30:58;;;;;;;0.00;0.00;;;27.10;37.80;;;;;;5128460;27;20235;-41
2023/12/31 10:33:34;;;;;;;0.00;0.00;;;27.00;37.70;;;;;;5126208;27;20284;-49
2023/12/31 10:36:09;;;;;;;0.00;0.00;;;27.00;37.80;;;;;;5115109;27;20269;-42
2023/12/31 10:38:49;;;;;;;0.00;0.00;;;27.00;37.80;;;;;;5128107;27;20211;-45
2023/12/31 10:41:24;;;;;;;0.00;0.00;;;27.00;37.90;;;;;;5129039;27;20267;-42
2023/12/31 10:43:57;;;;;;;0.00;0.00;;;27.00;37.90;;;;;;5128603;27;20218;-43
2023/12/31 10:46:32;;;;;;;0.00;0.00;;;26.90;37.90;;;;;;5128893;27;20217;-45
2023/12/31 10:49:06;;;;;;;0.00;0.00;;;26.90;37.90;;;;;;5112618;27;20564;-44
2023/12/31 10:51:41;;;;;;;0.00;0.00;;;26.90;38.00;;;;;;5118487;27;20196;-49
2023/12/31 10:54:18;;;;;;;0.00;0.00;;;26.90;38.00;;;;;;5128039;27;20222;-45
2023/12/31 10:56:51;;;;;;;0.00;0.00;;;26.80;37.90;;;;;;5128288;27;20685;-48
2023/12/31 10:59:22;;;;;;;0.00;0.00;;;26.80;38.00;;;;;;5128109;27;20208;-46
2023/12/31 11:01:55;;;;;;;0.00;0.00;;;26.80;38.00;;;;;;5115988;27;20229;-40
2023/12/31 11:04:28;;;;;;;0.00;0.00;;;26.70;38.00;;;;;;5110211;27;20197;-45
2023/12/31 11:07:00;;;;;;;0.00;0.00;;;26.70;38.00;;;;;;5127114;27;20244;-47
2023/12/31 11:09:33;;;;;;;0.00;0.00;;;26.70;38.10;;;;;;5127672;27;20555;-44
2023/12/31 11:12:04;;;;;;;0.00;0.00;;;26.70;38.10;;;;;;5128114;28;20200;-46
2023/12/31 11:14:35;;;;;;;0.00;0.00;;;26.60;38.10;;;;;;5120200;28;20232;-48
2023/12/31 11:17:23;;;;;;;0.00;0.00;;;26.60;38.10;;;;;;5116953;28;20212;-50
2023/12/31 11:20:32;;;;;;;0.00;0.00;;;26.60;38.20;;;;;;5132195;28;20193;-47
2023/12/31 11:23:11;;;;;;;0.00;0.00;;;26.50;38.20;;;;;;5119551;28;20564;-52
2023/12/31 11:25:42;;;;;;;0.00;0.00;;;26.50;38.20;;;;;;5132274;28;20231;-48
2023/12/31 11:28:13;;;;;;;0.00;0.00;;;26.50;38.20;;;;;;5131943;28;20805;-47
2023/12/31 11:30:52;;;;;;;0.00;0.00;;;26.40;38.20;;;;;;5132343;28;20533;-49
2023/12/31 11:33:28;;;;;;;0.00;0.00;;;26.40;38.30;;;;;;5135373;27;20196;-41
2023/12/31 11:36:03;;;;;;;0.00;0.00;;;26.40;38.30;;;;;;5136143;27;20280;-45
2023/12/31 11:38:55;;;;;;;0.00;0.00;;;26.40;38.30;;;;;;5136262;27;20212;-44
2023/12/31 11:41:27;;;;;;;0.00;0.00;;;26.30;38.30;;;;;;5136579;27;20196;-49
2023/12/31 11:43:58;;;;;;;0.00;0.00;;;26.30;38.30;;;;;;5135728;27;20200;-45
2023/12/31 11:46:39;;;;;;;0.00;0.00;;;26.30;38.40;;;;;;5133109;27;20208;-44
2023/12/31 11:49:12;;;;;;;0.00;0.00;;;26.30;38.40;;;;;;5135401;27;20671;-46
2023/12/31 11:51:56;;;;;;;0.00;0.00;;;26.30;38.50;;;;;;5135429;27;20728;-46
2023/12/31 11:54:36;;;;;;;0.00;0.00;;;26.20;38.50;;;;;;5132513;27;20248;-43
2023/12/31 11:57:08;;;;;;;0.00;0.00;;;26.20;38.50;;;;;;5132462;27;20213;-42
2023/12/31 11:59:40;;;;;;;0.00;0.00;;;26.20;38.50;;;;;;5134786;27;20216;-43
2023/12/31 12:02:11;;;;;;;0.00;0.00;;;26.20;38.60;;;;;;5133326;27;20181;-40
2023/12/31 12:04:43;;;;;;;0.00;0.00;;;26.20;38.60;;;;;;5135220;27;20192;-44
2023/12/31 12:07:14;;;;;;;0.00;0.00;;;26.10;38.60;;;;;;5134978;27;20213;-49
2023/12/31 12:09:46;;;;;;;0.00;0.00;;;26.10;38.70;;;;;;5134986;27;20197;-48
2023/12/31 12:12:16;;;;;;;0.00;0.00;;;26.10;38.70;;;;;;5134063;27;20192;-42
2023/12/31 12:14:47;;;;;;;0.00;0.00;;;26.10;38.70;;;;;;5135037;27;20571;-44
2023/12/31 12:17:17;;;;;;;0.00;0.00;;;26.00;38.80;;;;;;5135333;27;20209;-47
2023/12/31 12:19:50;;;;;;;0.00;0.00;;;26.00;38.80;;;;;;5135613;27;20189;-43
2023/12/31 12:22:22;;;;;;;0.00;0.00;;;26.00;38.90;;;;;;5134871;27;20207;-44
2023/12/31 12:24:52;;;;;;;0.00;0.00;;;25.90;38.80;;;;;;5134574;27;20193;-46
2023/12/31 12:27:23;;;;;;;0.00;0.00;;;25.90;38.90;;;;;;5135356;27;20208;-44
2023/12/31 12:29:54;;;;;;;0.00;0.00;;;25.90;38.90;;;;;;5135438;27;20192;-45
2023/12/31 12:32:27;;;;;;;0.00;0.00;;;25.90;38.90;;;;;;5135098;27;20189;-49
2023/12/31 12:35:06;;;;;;;0.00;0.00;;;25.80;39.00;;;;;;5134454;27;20256;-52
2023/12/31 12:37:38;;;;;;;0.00;0.00;;;25.80;39.00;;;;;;5134445;27;20578;-46
2023/12/31 12:40:09;;;;;;;0.00;0.00;;;25.80;39.10;;;;;;5134490;27;20208;-46
2023/12/31 12:42:40;;;;;;;0.00;0.00;;;25.80;39.10;;;;;;5111864;22;20239;-45
2023/12/31 12:45:13;;;;;;;0.00;0.00;;;25.80;39.20;;;;;;5072202;28;20191;-46
2023/12/31 12:47:45;;;;;;;0.00;0.00;;;25.70;39.20;;;;;;5073934;28;20226;-46
2023/12/31 12:50:18;;;;;;;0.00;0.00;;;25.70;39.20;;;;;;5073872;28;20198;-45
2023/12/31 12:52:48;;;;;;;0.00;0.00;;;25.70;39.20;;;;;;5073896;28;20719;-46
2023/12/31 12:55:19;;;;;;;0.00;0.00;;;25.70;39.30;;;;;;5073666;28;20233;-46
2023/12/31 12:57:50;;;;;;;0.00;0.00;;;25.70;39.30;;;;;;5073385;28;20241;-45
2023/12/31 13:00:21;;;;;;;0.00;0.00;;;25.60;39.30;;;;;;5073572;28;20194;-46
2023/12/31 13:02:52;;;;;;;0.00;0.00;;;25.60;39.40;;;;;;5072445;28;20244;-46
2023/12/31 13:05:24;;;;;;;0.00;0.00;;;25.60;39.40;;;;;;5069908;28;20199;-46
2023/12/31 13:07:55;;;;;;;0.00;0.00;;;25.60;39.40;;;;;;5064082;28;20718;-46
2023/12/31 13:10:25;;;;;;;0.00;0.00;;;25.50;39.40;;;;;;5068556;28;20203;-46
2023/12/31 13:12:56;;;;;;;0.00;0.00;;;25.50;39.40;;;;;;5069183;28;20194;-46